createdAt,value
2019-02-04T00:01:50.029Z,98536.55
2019-02-04T00:04:21.400Z,98540.61
2019-02-04T00:06:52.704Z,98548.62
2019-02-04T00:09:23.901Z,98546.27
2019-02-04T00:11:55.591Z,98544.45
2019-02-04T00:14:27.060Z,98548.95
2019-02-04T00:16:58.515Z,98551.54
2019-02-04T00:19:29.901Z,98554.97
2019-02-04T00:22:01.273Z,98557.56
2019-02-04T00:24:32.913Z,98561.75
2019-02-04T00:27:04.685Z,98566.09
2019-02-04T00:29:36.089Z,98568.37
2019-02-04T00:32:07.563Z,98565.70
2019-02-04T00:34:39.106Z,98571.67
2019-02-04T00:37:10.527Z,98577.34
2019-02-04T00:39:41.811Z,98578.14
2019-02-04T00:42:13.327Z,98586.19
2019-02-04T00:44:44.815Z,98583.59
2019-02-04T00:47:16.305Z,98590.02
2019-02-04T00:49:47.576Z,98594.17
2019-02-04T00:52:18.849Z,98596.98
2019-02-04T00:54:50.058Z,98595.94
2019-02-04T00:57:21.266Z,98597.16
2019-02-04T00:59:52.634Z,98601.57
2019-02-04T01:02:24.160Z,98600.95
2019-02-04T01:04:55.912Z,98612.29
2019-02-04T01:07:27.524Z,98615.72
2019-02-04T01:09:59.104Z,98618.84
2019-02-04T01:12:30.422Z,98617.41
2019-02-04T01:15:01.991Z,98620.22
2019-02-04T01:17:33.474Z,98617.11
2019-02-04T01:20:06.148Z,98623.13
2019-02-04T01:22:37.584Z,98624.09
2019-02-04T01:25:10.073Z,98623.49
2019-02-04T01:27:41.707Z,98623.70
2019-02-04T01:30:14.325Z,98622.23
2019-02-04T01:32:45.996Z,98623.10
2019-02-04T01:35:17.598Z,98634.27
2019-02-04T01:37:49.750Z,98640.25
2019-02-04T01:40:24.361Z,98642.72
2019-02-04T01:42:56.718Z,98645.91
2019-02-04T01:45:28.397Z,98649.70
2019-02-04T01:48:00.439Z,98644.09
2019-02-04T01:50:31.813Z,98642.23
2019-02-04T01:53:03.589Z,98642.39
2019-02-04T01:55:34.819Z,98633.35
2019-02-04T01:58:06.283Z,98630.28
2019-02-04T02:00:39.088Z,98626.69
2019-02-04T02:03:10.379Z,98642.14
2019-02-04T02:05:41.784Z,98652.24
2019-02-04T02:08:13.003Z,98662.10
2019-02-04T02:10:44.375Z,98664.52
2019-02-04T02:13:16.107Z,98672.91
2019-02-04T02:15:47.654Z,98680.48
2019-02-04T02:18:18.930Z,98685.36
2019-02-04T02:20:50.285Z,98684.84
2019-02-04T02:23:21.661Z,98692.75
2019-02-04T02:25:53.372Z,98699.28
2019-02-04T02:28:25.026Z,98699.21
2019-02-04T02:30:56.513Z,98710.92
2019-02-04T02:33:27.905Z,98715.52
2019-02-04T02:35:59.277Z,98713.01
2019-02-04T02:38:30.829Z,98711.76
2019-02-04T02:41:02.165Z,98717.45
2019-02-04T02:43:33.506Z,98708.69
2019-02-04T02:46:05.314Z,98700.95
2019-02-04T02:48:36.720Z,98700.38
2019-02-04T02:51:08.495Z,98700.45
2019-02-04T02:53:39.937Z,98700.65
2019-02-04T02:56:13.188Z,98705.64
2019-02-04T02:58:44.664Z,98715.31
2019-02-04T03:01:15.970Z,98718.67
2019-02-04T03:03:47.391Z,98718.16
2019-02-04T03:06:19.128Z,98713.11
2019-02-04T03:08:50.437Z,98712.86
2019-02-04T03:11:21.683Z,98709.12
2019-02-04T03:13:52.921Z,98709.24
2019-02-04T03:16:24.352Z,98711.75
2019-02-04T03:18:58.519Z,98715.03
2019-02-04T03:21:29.982Z,98720.70
2019-02-04T03:24:01.526Z,98715.72
2019-02-04T03:26:33.369Z,98710.77
2019-02-04T03:29:04.854Z,98713.20
2019-02-04T03:31:39.317Z,98716.99
2019-02-04T03:34:11.905Z,98722.23
2019-02-04T03:36:43.162Z,98728.86
2019-02-04T03:39:14.837Z,98731.76
2019-02-04T03:41:46.319Z,98733.56
2019-02-04T03:44:17.500Z,98743.39
2019-02-04T03:46:48.844Z,98743.03
2019-02-04T03:49:20.165Z,98740.84
2019-02-04T03:51:51.675Z,98751.91
2019-02-04T03:54:23.053Z,98750.47
2019-02-04T03:56:54.498Z,98760.28
2019-02-04T03:59:25.839Z,98765.07
2019-02-04T04:01:57.028Z,98764.23
2019-02-04T04:04:28.306Z,98768.88
2019-02-04T04:07:01.721Z,98775.22
2019-02-04T04:09:32.939Z,98777.24
2019-02-04T04:12:04.405Z,98783.95
2019-02-04T04:14:36.126Z,98784.90
2019-02-04T04:17:07.565Z,98782.45
2019-02-04T04:19:38.954Z,98792.98
2019-02-04T04:22:10.319Z,98787.92
2019-02-04T04:24:41.691Z,98797.97
2019-02-04T04:27:13.463Z,98796.91
2019-02-04T04:29:44.905Z,98794.14
2019-02-04T04:32:16.407Z,98802.22
2019-02-04T04:34:47.718Z,98792.45
2019-02-04T04:37:19.070Z,98799.09
2019-02-04T04:39:50.719Z,98799.60
2019-02-04T04:42:21.997Z,98801.03
2019-02-04T04:44:53.411Z,98796.91
2019-02-04T04:47:24.734Z,98802.33
2019-02-04T04:49:56.094Z,98808.53
2019-02-04T04:52:28.136Z,98815.69
2019-02-04T04:54:59.625Z,98809.05
2019-02-04T04:57:30.970Z,98815.25
2019-02-04T05:00:02.460Z,98816.69
2019-02-04T05:02:33.815Z,98820.05
2019-02-04T05:05:05.857Z,98817.72
2019-02-04T05:07:37.326Z,98828.30
2019-02-04T05:10:11.276Z,98838.57
2019-02-04T05:12:42.719Z,98838.71
2019-02-04T05:15:17.509Z,98836.42
2019-02-04T05:17:49.029Z,98839.41
2019-02-04T05:20:22.221Z,98838.47
2019-02-04T05:22:53.745Z,98843.23
2019-02-04T05:25:25.340Z,98846.47
2019-02-04T05:27:57.253Z,98850.61
2019-02-04T05:30:28.860Z,98851.80
2019-02-04T05:33:01.278Z,98854.83
2019-02-04T05:35:32.679Z,98869.94
2019-02-04T05:38:04.910Z,98863.16
2019-02-04T05:40:36.232Z,98870.05
2019-02-04T05:43:07.849Z,98873.07
2019-02-04T05:45:39.204Z,98878.64
2019-02-04T05:48:10.541Z,98885.53
2019-02-04T05:50:41.897Z,98889.27
2019-02-04T05:53:13.320Z,98891.75
2019-02-04T05:55:44.698Z,98894.23
2019-02-04T05:58:16.061Z,98894.23
2019-02-04T06:00:49.607Z,98906.22
2019-02-04T06:03:21.263Z,98917.45
2019-02-04T06:05:52.677Z,98920.09
2019-02-04T06:08:24.263Z,98922.60
2019-02-04T06:10:55.525Z,98931.66
2019-02-04T06:13:26.992Z,98927.92
2019-02-04T06:15:58.405Z,98944.47
2019-02-04T06:18:29.883Z,98940.41
2019-02-04T06:21:01.326Z,98940.72
2019-02-04T06:23:32.544Z,98950.43
2019-02-04T06:26:03.863Z,98944.48
2019-02-04T06:28:35.355Z,98946.22
2019-02-04T06:31:06.970Z,98956.45
2019-02-04T06:33:38.420Z,98964.02
2019-02-04T06:36:11.130Z,98965.05
2019-02-04T06:38:42.661Z,98962.28
2019-02-04T06:41:17.304Z,98965.70
2019-02-04T06:43:48.746Z,98974.67
2019-02-04T06:46:20.198Z,98977.44
2019-02-04T06:48:51.615Z,98973.97
2019-02-04T06:51:23.109Z,98977.84
2019-02-04T06:53:55.069Z,98985.45
2019-02-04T06:56:26.430Z,98984.83
2019-02-04T06:58:57.828Z,98988.31
2019-02-04T07:01:29.339Z,98994.06
2019-02-04T07:04:00.760Z,98980.22
2019-02-04T07:06:32.502Z,98976.89
2019-02-04T07:09:05.776Z,98979.45
2019-02-04T07:11:37.329Z,98980.29
2019-02-04T07:14:08.764Z,98993.97
2019-02-04T07:16:40.162Z,98998.44
2019-02-04T07:19:23.420Z,98999.91
2019-02-04T07:21:45.570Z,99007.77
2019-02-04T07:24:16.947Z,99010.17
2019-02-04T07:26:48.357Z,99018.44
2019-02-04T07:29:19.732Z,99026.28
2019-02-04T07:31:51.101Z,99037.36
2019-02-04T07:34:22.295Z,99032.44
2019-02-04T07:36:53.876Z,99037.42
2019-02-04T07:39:25.554Z,99022.78
2019-02-04T07:41:57.081Z,99025.47
2019-02-04T07:44:28.722Z,99030.73
2019-02-04T07:47:00.184Z,99023.93
2019-02-04T07:49:35.169Z,99024.66
2019-02-04T07:52:05.369Z,99032.37
2019-02-04T07:54:36.737Z,99042.94
2019-02-04T07:57:08.226Z,99040.39
2019-02-04T07:59:39.559Z,99038.34
2019-02-04T08:02:11.139Z,99036.78
2019-02-04T08:04:42.395Z,99041.11
2019-02-04T08:07:13.723Z,99045.75
2019-02-04T08:09:45.343Z,99038.37
2019-02-04T08:12:16.747Z,99041.58
2019-02-04T08:14:48.030Z,99049.66
2019-02-04T08:17:19.904Z,99055.77
2019-02-04T08:19:53.492Z,99050.92
2019-02-04T08:22:25.126Z,99053.72
2019-02-04T08:24:56.590Z,99056.94
2019-02-04T08:27:27.950Z,99056.63
2019-02-04T08:29:59.481Z,99057.77
2019-02-04T08:32:31.061Z,99075.80
2019-02-04T08:35:03.209Z,99079.30
2019-02-04T08:37:34.523Z,99082.88
2019-02-04T08:40:06.523Z,99090.73
2019-02-04T08:42:38.212Z,99093.64
2019-02-04T08:45:10.724Z,99092.30
2019-02-04T08:47:42.417Z,99089.23
2019-02-04T08:50:17.046Z,99090.98
2019-02-04T08:52:49.617Z,99096.49
2019-02-04T08:55:21.992Z,99097.84
2019-02-04T08:57:54.779Z,99103.50
2019-02-04T09:00:26.845Z,99104.90
2019-02-04T09:02:58.435Z,99092.49
2019-02-04T09:05:30.147Z,99110.41
2019-02-04T09:08:01.545Z,99104.45
2019-02-04T09:10:35.065Z,99111.52
2019-02-04T09:13:07.212Z,99113.22
2019-02-04T09:15:39.005Z,99107.11
2019-02-04T09:18:10.610Z,99112.06
2019-02-04T09:20:42.705Z,99114.86
2019-02-04T09:23:14.747Z,99107.96
2019-02-04T09:25:46.275Z,99116.55
2019-02-04T09:28:18.706Z,99118.44
2019-02-04T09:30:50.217Z,99114.72
2019-02-04T09:33:22.673Z,99111.36
2019-02-04T09:35:54.750Z,99106.89
2019-02-04T09:38:27.191Z,99115.11
2019-02-04T09:40:58.754Z,99113.62
2019-02-04T09:43:31.268Z,99110.11
2019-02-04T09:46:02.953Z,99112.15
2019-02-04T09:48:34.668Z,99112.88
2019-02-04T09:51:06.431Z,99115.50
2019-02-04T09:53:37.986Z,99111.94
2019-02-04T09:56:10.235Z,99115.01
2019-02-04T09:58:42.078Z,99112.65
2019-02-04T10:01:14.124Z,99113.56
2019-02-04T10:03:45.554Z,99114.58
2019-02-04T10:06:17.606Z,99105.91
2019-02-04T10:08:49.155Z,99110.05
2019-02-04T10:11:20.648Z,99104.13
2019-02-04T10:13:53.342Z,99094.14
2019-02-04T10:16:24.976Z,99099.09
2019-02-04T10:18:56.461Z,99102.58
2019-02-04T10:21:28.062Z,99108.42
2019-02-04T10:23:59.588Z,99099.88
2019-02-04T10:26:31.169Z,99107.80
2019-02-04T10:29:02.413Z,99108.89
2019-02-04T10:31:33.834Z,99114.05
2019-02-04T10:34:06.437Z,99118.52
2019-02-04T10:36:37.901Z,99118.30
2019-02-04T10:39:10.915Z,99111.78
2019-02-04T10:41:42.570Z,99114.28
2019-02-04T10:44:14.175Z,99120.86
2019-02-04T10:46:46.250Z,99112.77
2019-02-04T10:49:18.640Z,99127.57
2019-02-04T10:51:50.033Z,99116.26
2019-02-04T10:54:22.071Z,99113.98
2019-02-04T10:56:53.891Z,99103.06
2019-02-04T10:59:25.533Z,99097.17
2019-02-04T11:01:57.501Z,99110.48
2019-02-04T11:04:28.846Z,99103.42
2019-02-04T11:07:00.391Z,99089.82
2019-02-04T11:09:32.183Z,99104.80
2019-02-04T11:12:03.704Z,99109.70
2019-02-04T11:14:37.242Z,99124.11
2019-02-04T11:17:08.848Z,99116.20
2019-02-04T11:19:40.968Z,99094.02
2019-02-04T11:22:12.546Z,99104.91
2019-02-04T11:24:44.107Z,99101.37
2019-02-04T11:27:15.778Z,99107.38
2019-02-04T11:29:47.520Z,99106.05
2019-02-04T11:32:19.398Z,99109.88
2019-02-04T11:34:51.162Z,99104.17
2019-02-04T11:37:22.749Z,99105.72
2019-02-04T11:39:54.381Z,99100.09
2019-02-04T11:42:26.562Z,99104.88
2019-02-04T11:44:57.941Z,99095.85
2019-02-04T11:47:29.307Z,99091.34
2019-02-04T11:50:00.578Z,99093.37
2019-02-04T11:52:35.035Z,99092.75
2019-02-04T11:55:05.824Z,99088.55
2019-02-04T11:57:37.752Z,99082.66
2019-02-04T12:00:17.714Z,99084.19
2019-02-04T12:02:49.510Z,99075.42
2019-02-04T12:05:22.479Z,99094.08
2019-02-04T12:07:54.648Z,99076.45
2019-02-04T12:10:40.470Z,99086.01
2019-02-04T12:13:12.149Z,99087.10
2019-02-04T12:15:44.518Z,99085.53
2019-02-04T12:18:16.431Z,99082.43
2019-02-04T12:20:48.583Z,99086.83
2019-02-04T12:23:20.128Z,99093.31
2019-02-04T12:25:51.494Z,99085.44
2019-02-04T12:28:23.013Z,99087.70
2019-02-04T12:30:55.056Z,99084.16
2019-02-04T12:33:26.394Z,99076.00
2019-02-04T12:35:58.084Z,99066.98
2019-02-04T12:38:30.005Z,99070.58
2019-02-04T12:41:01.698Z,99074.78
2019-02-04T12:43:33.287Z,99065.98
2019-02-04T12:46:05.353Z,99078.29
2019-02-04T12:48:37.367Z,99086.09
2019-02-04T12:51:09.192Z,99074.48
2019-02-04T12:53:41.371Z,99081.94
2019-02-04T12:56:12.758Z,99073.47
2019-02-04T12:58:55.359Z,99072.39
2019-02-04T13:01:18.024Z,99082.26
2019-02-04T13:03:49.556Z,99074.73
2019-02-04T13:06:21.166Z,99075.67
2019-02-04T13:08:52.834Z,99069.20
2019-02-04T13:11:24.349Z,99076.22
2019-02-04T13:13:55.844Z,99078.16
2019-02-04T13:16:27.584Z,99078.37
2019-02-04T13:18:59.012Z,99069.20
2019-02-04T13:21:30.549Z,99070.70
2019-02-04T13:24:02.175Z,99070.59
2019-02-04T13:26:33.642Z,99073.43
2019-02-04T13:29:05.159Z,99067.16
2019-02-04T13:31:36.631Z,99073.46
2019-02-04T13:34:08.539Z,99065.47
2019-02-04T13:36:40.072Z,99090.36
2019-02-04T13:39:12.200Z,99077.27
2019-02-04T13:41:43.620Z,99072.39
2019-02-04T13:44:15.075Z,99079.90
2019-02-04T13:46:46.511Z,99078.82
2019-02-04T13:49:18.444Z,99085.56
2019-02-04T13:51:57.498Z,99087.28
2019-02-04T13:54:24.542Z,99082.38
2019-02-04T13:56:56.233Z,99085.30
2019-02-04T13:59:28.552Z,99093.28
2019-02-04T14:02:00.424Z,99080.91
2019-02-04T14:04:31.786Z,99085.08
2019-02-04T14:07:03.262Z,99082.90
2019-02-04T14:09:34.575Z,99087.52
2019-02-04T14:12:06.679Z,99091.91
2019-02-04T14:14:38.512Z,99093.13
2019-02-04T14:17:10.349Z,99101.83
2019-02-04T14:19:42.063Z,99102.58
2019-02-04T14:22:13.596Z,99101.78
2019-02-04T14:24:45.455Z,99104.67
2019-02-04T14:27:16.782Z,99102.63
2019-02-04T14:29:48.530Z,99103.36
2019-02-04T14:32:20.314Z,99106.36
2019-02-04T14:34:54.603Z,99106.40
2019-02-04T14:37:25.308Z,99102.28
2019-02-04T14:39:56.872Z,99114.50
2019-02-04T14:42:29.110Z,99119.88
2019-02-04T14:46:30.235Z,99125.63
2019-02-04T14:50:25.420Z,99118.84
2019-02-04T14:54:02.669Z,99132.18
2019-02-04T14:57:32.897Z,99130.19
2019-02-04T15:01:20.270Z,99127.08
2019-02-04T15:05:02.007Z,99117.98
2019-02-04T15:08:18.456Z,99132.25
2019-02-04T15:11:26.571Z,99133.39
2019-02-04T15:14:46.982Z,99134.64
2019-02-04T15:18:08.525Z,99141.84
2019-02-04T15:21:38.791Z,99137.13
2019-02-04T15:24:54.187Z,99143.62
2019-02-04T15:28:46.089Z,99140.54
2019-02-04T15:32:24.941Z,99151.47
2019-02-04T15:36:07.171Z,99159.56
2019-02-04T15:39:17.989Z,99153.80
2019-02-04T15:42:55.790Z,99156.86
2019-02-04T15:46:21.336Z,99168.27
2019-02-04T15:49:50.741Z,99163.36
2019-02-04T15:52:18.432Z,99168.16
2019-02-04T15:54:50.978Z,99174.41
2019-02-04T15:57:22.842Z,99180.05
2019-02-04T15:59:54.520Z,99181.64
2019-02-04T16:02:28.191Z,99191.73
2019-02-04T16:05:00.052Z,99193.68
2019-02-04T16:07:32.241Z,99191.13
2019-02-04T16:10:04.009Z,99199.10
2019-02-04T16:12:37.567Z,99206.94
2019-02-04T16:15:10.746Z,99199.06
2019-02-04T16:17:42.434Z,99205.37
2019-02-04T16:20:24.321Z,99208.86
2019-02-04T16:22:59.138Z,99208.39
2019-02-04T16:25:31.209Z,99218.75
2019-02-04T16:28:04.477Z,99222.48
2019-02-04T16:30:36.431Z,99211.13
2019-02-04T16:33:07.986Z,99217.74
2019-02-04T16:35:41.608Z,99224.36
2019-02-04T16:38:13.682Z,99225.34
2019-02-04T16:40:45.506Z,99227.52
2019-02-04T16:43:17.418Z,99224.66
2019-02-04T16:45:49.200Z,99229.55
2019-02-04T16:48:20.979Z,99228.47
2019-02-04T16:51:10.598Z,99236.80
2019-02-04T16:53:25.730Z,99242.41
2019-02-04T16:55:57.789Z,99236.13
2019-02-04T16:58:29.628Z,99241.48
2019-02-04T17:01:01.907Z,99239.23
2019-02-04T17:03:33.766Z,99233.48
2019-02-04T17:06:10.662Z,99242.55
2019-02-04T17:08:42.916Z,99239.97
2019-02-04T17:11:14.896Z,99238.98
2019-02-04T17:13:47.222Z,99240.29
2019-02-04T17:16:19.303Z,99241.88
2019-02-04T17:18:50.871Z,99248.20
2019-02-04T17:21:23.853Z,99244.36
2019-02-04T17:23:55.923Z,99241.65
2019-02-04T17:26:29.786Z,99241.57
2019-02-04T17:29:01.612Z,99254.50
2019-02-04T17:31:34.806Z,99258.30
2019-02-04T17:34:06.697Z,99258.94
2019-02-04T17:36:39.507Z,99256.50
2019-02-04T17:39:11.779Z,99264.59
2019-02-04T17:41:43.862Z,99256.56
2019-02-04T17:44:15.683Z,99247.41
2019-02-04T17:46:47.382Z,99258.58
2019-02-04T17:49:19.224Z,99255.73
2019-02-04T17:51:52.295Z,99261.81
2019-02-04T17:54:24.075Z,99256.89
2019-02-04T17:56:56.052Z,99258.97
2019-02-04T17:59:28.268Z,99252.91
2019-02-04T18:01:59.906Z,99260.56
2019-02-04T18:04:31.438Z,99259.52
2019-02-04T18:07:03.034Z,99265.67
2019-02-04T18:09:35.329Z,99271.91
2019-02-04T18:12:07.147Z,99265.97
2019-02-04T18:14:38.687Z,99262.19
2019-02-04T18:17:10.482Z,99265.36
2019-02-04T18:19:42.526Z,99270.69
2019-02-04T18:22:14.602Z,99270.75
2019-02-04T18:24:46.314Z,99275.69
2019-02-04T18:27:18.062Z,99271.56
2019-02-04T18:29:49.981Z,99275.52
2019-02-04T18:32:21.773Z,99276.83
2019-02-04T18:35:01.818Z,99282.83
2019-02-04T18:37:31.288Z,99278.42
2019-02-04T18:40:06.248Z,99276.45
2019-02-04T18:42:38.560Z,99274.20
2019-02-04T18:45:16.497Z,99275.89
2019-02-04T18:47:49.221Z,99273.76
2019-02-04T18:50:21.915Z,99275.83
2019-02-04T18:52:54.714Z,99282.27
2019-02-04T18:55:32.654Z,99275.24
2019-02-04T18:58:04.887Z,99269.28
2019-02-04T19:00:36.636Z,99263.13
2019-02-04T19:03:16.799Z,99255.25
2019-02-04T19:05:42.203Z,99266.45
2019-02-04T19:08:13.953Z,99275.05
2019-02-04T19:10:45.575Z,99267.42
2019-02-04T19:13:17.216Z,99264.84
2019-02-04T19:15:49.078Z,99270.27
2019-02-04T19:18:20.753Z,99284.86
2019-02-04T19:20:52.854Z,99275.79
2019-02-04T19:23:26.904Z,99271.68
2019-02-04T19:25:58.357Z,99282.57
2019-02-04T19:28:29.976Z,99282.57
2019-02-04T19:31:13.513Z,99273.89
2019-02-04T19:33:45.465Z,99282.08
2019-02-04T19:36:18.534Z,99294.23
2019-02-04T19:38:50.627Z,99291.78
2019-02-04T19:41:22.304Z,99285.94
2019-02-04T19:43:53.904Z,99284.20
2019-02-04T19:46:27.975Z,99289.19
2019-02-04T19:49:01.030Z,99297.17
2019-02-04T19:51:36.943Z,99297.44
2019-02-04T19:54:21.126Z,99306.50
2019-02-04T19:56:50.522Z,99305.86
2019-02-04T19:59:25.012Z,99305.61
2019-02-04T20:01:57.129Z,99306.95
2019-02-04T20:04:29.566Z,99311.17
2019-02-04T20:07:02.881Z,99302.91
2019-02-04T20:09:34.895Z,99293.91
2019-02-04T20:12:07.412Z,99285.88
2019-02-04T20:14:40.241Z,99297.96
2019-02-04T20:17:12.118Z,99297.42
2019-02-04T20:19:44.633Z,99299.12
2019-02-04T20:22:17.344Z,99291.15
2019-02-04T20:24:49.268Z,99296.87
2019-02-04T20:27:27.177Z,99296.42
2019-02-04T20:29:59.411Z,99294.79
2019-02-04T20:32:32.659Z,99298.55
2019-02-04T20:35:06.797Z,99304.40
2019-02-04T20:37:39.652Z,99310.70
2019-02-04T20:40:16.637Z,99311.14
2019-02-04T20:42:50.417Z,99315.70
2019-02-04T20:45:27.083Z,99308.48
2019-02-04T20:48:00.490Z,99320.23
2019-02-04T20:50:39.049Z,99312.98
2019-02-04T20:53:12.679Z,99315.67
2019-02-04T20:55:45.872Z,99319.86
2019-02-04T20:58:18.606Z,99316.72
2019-02-04T21:00:51.218Z,99320.61
2019-02-04T21:03:23.368Z,99321.32
2019-02-04T21:05:56.120Z,99322.34
2019-02-04T21:08:28.729Z,99321.06
2019-02-04T21:11:00.878Z,99334.16
2019-02-04T21:13:33.696Z,99336.19
2019-02-04T21:16:06.022Z,99332.03
2019-02-04T21:18:37.775Z,99331.84
2019-02-04T21:21:09.613Z,99334.81
2019-02-04T21:23:41.337Z,99326.42
2019-02-04T21:26:13.058Z,99327.05
2019-02-04T21:28:44.678Z,99332.73
2019-02-04T21:31:16.382Z,99332.73
2019-02-04T21:33:48.840Z,99324.82
2019-02-04T21:36:22.396Z,99326.52
2019-02-04T21:38:54.544Z,99322.30
2019-02-04T21:41:27.482Z,99312.86
2019-02-04T21:44:00.278Z,99320.97
2019-02-04T21:46:33.754Z,99313.81
2019-02-04T21:49:05.730Z,99316.67
2019-02-04T21:51:37.786Z,99303.70
2019-02-04T21:54:09.641Z,99316.06
2019-02-04T21:56:41.320Z,99323.44
2019-02-04T21:59:13.063Z,99312.12
2019-02-04T22:01:45.544Z,99310.84
2019-02-04T22:04:17.701Z,99319.31
2019-02-04T22:06:49.851Z,99315.41
2019-02-04T22:09:22.441Z,99311.16
2019-02-04T22:11:54.465Z,99317.51
2019-02-04T22:14:28.066Z,99311.86
2019-02-04T22:16:59.959Z,99317.53
2019-02-04T22:19:32.077Z,99309.78
2019-02-04T22:22:03.807Z,99329.42
2019-02-04T22:24:35.586Z,99323.91
2019-02-04T22:27:07.935Z,99334.75
2019-02-04T22:29:43.155Z,99330.23
2019-02-04T22:32:14.953Z,99333.67
2019-02-04T22:34:47.500Z,99336.39
2019-02-04T22:37:19.409Z,99335.16
2019-02-04T22:39:51.427Z,99336.05
2019-02-04T22:42:23.199Z,99336.45
2019-02-04T22:44:55.241Z,99339.20
2019-02-04T22:47:27.743Z,99343.38
2019-02-04T22:50:00.213Z,99353.55
2019-02-04T22:52:32.391Z,99336.84
2019-02-04T22:55:04.615Z,99344.22
2019-02-04T22:57:36.609Z,99343.93
2019-02-04T23:00:55.128Z,99340.72
2019-02-04T23:03:28.081Z,99341.99
2019-02-04T23:05:59.835Z,99347.81
2019-02-04T23:08:31.799Z,99338.47
2019-02-04T23:11:03.670Z,99337.27
2019-02-04T23:13:35.353Z,99335.30
2019-02-04T23:16:07.352Z,99331.72
2019-02-04T23:18:38.995Z,99334.09
2019-02-04T23:21:10.734Z,99332.72
2019-02-04T23:23:42.131Z,99327.99
2019-02-04T23:26:14.063Z,99331.13
2019-02-04T23:28:45.965Z,99326.94
2019-02-04T23:31:17.541Z,99317.45
2019-02-04T23:33:49.404Z,99320.18
2019-02-04T23:36:21.135Z,99323.05
2019-02-04T23:38:53.031Z,99329.92
2019-02-04T23:41:24.689Z,99320.59
2019-02-04T23:43:57.697Z,99323.94
2019-02-04T23:46:29.033Z,99323.02
2019-02-04T23:49:00.481Z,99318.42
2019-02-04T23:51:32.009Z,99319.36
2019-02-04T23:54:03.381Z,99310.53
2019-02-04T23:56:34.858Z,99307.03
2019-02-04T23:59:06.629Z,99304.55
